createdAt,value
2018-09-18T00:01:32.043Z,10.67
2018-09-18T00:04:01.220Z,11.37
2018-09-18T00:06:30.422Z,8.40
2018-09-18T00:08:59.659Z,8.63
2018-09-18T00:11:28.885Z,9.00
2018-09-18T00:13:58.114Z,10.83
2018-09-18T00:16:27.322Z,10.80
2018-09-18T00:37:12.547Z,8.80
2018-09-18T00:39:41.723Z,11.40
2018-09-18T00:42:11.179Z,11.40
2018-09-18T00:44:40.435Z,9.40
2018-09-18T00:47:09.631Z,9.67
2018-09-18T00:49:38.832Z,10.13
2018-09-18T00:52:08.056Z,8.18
2018-09-18T00:54:37.262Z,11.00
2018-09-18T00:57:06.471Z,11.57
2018-09-18T00:59:35.639Z,9.87
2018-09-18T01:02:04.845Z,13.50
2018-09-18T01:04:34.065Z,10.33
2018-09-18T01:07:03.416Z,10.87
2018-09-18T01:09:32.650Z,10.50
2018-09-18T01:12:01.843Z,9.65
2018-09-18T01:14:31.081Z,11.50
2018-09-18T01:17:00.279Z,12.00
2018-09-18T01:19:29.502Z,13.72
2018-09-18T01:21:58.740Z,16.00
2018-09-18T01:24:28.003Z,9.63
2018-09-18T01:26:57.220Z,9.15
2018-09-18T01:29:26.483Z,14.40
2018-09-18T01:31:55.698Z,9.83
2018-09-18T01:34:24.911Z,13.83
2018-09-18T01:36:54.120Z,9.33
2018-09-18T01:39:23.323Z,13.40
2018-09-18T01:41:52.527Z,7.63
2018-09-18T01:44:21.735Z,11.73
2018-09-18T01:46:51.026Z,10.30
2018-09-18T01:49:20.271Z,11.87
2018-09-18T01:51:49.490Z,14.67
2018-09-18T01:54:18.698Z,9.27
2018-09-18T01:56:47.909Z,9.03
2018-09-18T01:59:17.412Z,8.40
2018-09-18T02:01:46.682Z,15.60
2018-09-18T02:04:16.455Z,11.03
2018-09-18T02:06:45.789Z,11.40
2018-09-18T02:09:15.607Z,14.40
2018-09-18T02:11:44.833Z,11.50
2018-09-18T02:14:14.354Z,7.60
2018-09-18T02:16:43.630Z,16.60
2018-09-18T02:19:13.378Z,12.30
2018-09-18T02:21:42.639Z,14.23
2018-09-18T02:24:11.819Z,12.13
2018-09-18T02:26:41.059Z,10.60
2018-09-18T02:29:10.923Z,12.68
2018-09-18T02:31:40.178Z,10.33
2018-09-18T02:34:09.462Z,14.07
2018-09-18T02:36:38.731Z,10.68
2018-09-18T02:39:09.923Z,10.83
2018-09-18T02:41:39.191Z,12.93
2018-09-18T02:44:08.415Z,10.63
2018-09-18T02:46:37.737Z,16.57
2018-09-18T02:49:07.883Z,11.93
2018-09-18T02:51:37.137Z,10.10
2018-09-18T02:54:06.330Z,14.13
2018-09-18T02:56:35.584Z,17.00
2018-09-18T02:59:04.924Z,12.37
2018-09-18T03:01:34.184Z,11.90
2018-09-18T03:04:03.392Z,16.60
2018-09-18T03:06:32.684Z,11.33
2018-09-18T03:09:01.860Z,10.97
2018-09-18T03:11:31.094Z,10.67
2018-09-18T03:14:00.274Z,12.80
2018-09-18T03:16:29.491Z,12.80
2018-09-18T03:18:58.715Z,11.30
2018-09-18T03:21:27.999Z,10.53
2018-09-18T03:23:57.185Z,19.23
2018-09-18T03:26:26.396Z,11.77
2018-09-18T03:28:55.560Z,13.20
2018-09-18T03:31:24.836Z,10.83
2018-09-18T03:33:54.003Z,12.07
2018-09-18T03:36:23.252Z,11.13
2018-09-18T03:38:52.500Z,9.17
2018-09-18T03:41:21.747Z,12.23
2018-09-18T03:43:50.927Z,10.97
2018-09-18T03:46:20.152Z,9.13
2018-09-18T03:48:49.356Z,12.80
2018-09-18T03:51:18.648Z,16.07
2018-09-18T03:53:47.824Z,13.45
2018-09-18T03:56:17.857Z,13.83
2018-09-18T03:58:47.030Z,14.97
2018-09-18T04:01:16.271Z,15.08
2018-09-18T04:03:45.465Z,14.03
2018-09-18T04:06:16.024Z,16.13
2018-09-18T04:08:45.249Z,17.47
2018-09-18T04:11:15.090Z,15.77
2018-09-18T04:13:44.323Z,17.40
2018-09-18T04:16:14.033Z,10.90
2018-09-18T04:18:43.206Z,11.78
2018-09-18T04:21:12.823Z,11.45
2018-09-18T04:23:42.025Z,12.63
2018-09-18T04:26:11.480Z,9.97
2018-09-18T04:28:40.668Z,12.17
2018-09-18T04:31:10.141Z,11.00
2018-09-18T04:33:39.322Z,13.07
2018-09-18T04:36:08.518Z,11.60
2018-09-18T04:38:37.708Z,15.40
2018-09-18T04:41:07.369Z,9.77
2018-09-18T04:43:36.531Z,15.47
2018-09-18T04:46:06.012Z,14.10
2018-09-18T04:48:35.197Z,16.62
2018-09-18T04:51:04.376Z,12.23
2018-09-18T04:53:33.587Z,13.43
2018-09-18T04:56:04.070Z,15.70
2018-09-18T04:58:33.463Z,18.27
2018-09-18T05:01:02.668Z,11.87
2018-09-18T05:03:32.905Z,16.62
2018-09-18T05:06:02.536Z,14.17
2018-09-18T05:08:31.724Z,11.50
2018-09-18T05:11:01.024Z,10.03
2018-09-18T05:13:30.211Z,11.70
2018-09-18T05:15:59.423Z,13.87
2018-09-18T05:18:28.622Z,10.50
2018-09-18T05:20:57.852Z,25.67
2018-09-18T05:23:27.023Z,10.43
2018-09-18T05:25:56.550Z,10.83
2018-09-18T05:28:26.130Z,9.00
2018-09-18T05:30:55.361Z,13.83
2018-09-18T05:33:24.550Z,10.17
2018-09-18T05:35:54.754Z,17.83
2018-09-18T05:38:23.950Z,16.93
2018-09-18T05:40:53.143Z,26.70
2018-09-18T05:43:22.307Z,17.53
2018-09-18T05:45:51.525Z,22.10
2018-09-18T05:48:20.741Z,24.73
2018-09-18T05:50:49.971Z,38.17
2018-09-18T05:53:20.173Z,23.18
2018-09-18T05:55:50.896Z,14.00
2018-09-18T05:58:20.166Z,18.35
2018-09-18T06:00:49.685Z,20.23
2018-09-18T06:03:19.115Z,20.97
2018-09-18T06:05:51.047Z,24.67
2018-09-18T06:08:23.846Z,13.60
2018-09-18T06:10:53.018Z,41.60
2018-09-18T06:13:22.201Z,21.20
2018-09-18T06:15:51.499Z,26.63
2018-09-18T06:18:20.685Z,27.50
2018-09-18T06:20:49.905Z,36.55
2018-09-18T06:23:19.111Z,32.53
2018-09-18T06:25:48.328Z,22.20
2018-09-18T06:28:17.552Z,19.33
2018-09-18T06:30:46.790Z,20.60
2018-09-18T06:33:16.445Z,21.60
2018-09-18T06:35:45.676Z,24.83
2018-09-18T06:38:14.852Z,15.85
2018-09-18T06:40:44.122Z,27.42
2018-09-18T06:43:13.291Z,33.07
2018-09-18T06:45:42.512Z,28.00
2018-09-18T06:48:11.743Z,27.65
2018-09-18T06:50:40.962Z,38.23
2018-09-18T06:53:10.395Z,30.97
2018-09-18T06:55:39.626Z,42.80
2018-09-18T06:58:09.166Z,27.35
2018-09-18T07:00:38.451Z,35.37
2018-09-18T07:03:07.926Z,30.40
2018-09-18T07:05:37.190Z,33.43
2018-09-18T07:08:06.351Z,27.90
2018-09-18T07:10:35.563Z,36.63
2018-09-18T07:13:04.799Z,23.80
2018-09-18T07:15:34.067Z,22.35
2018-09-18T07:18:03.361Z,18.37
2018-09-18T07:20:32.495Z,18.60
2018-09-18T07:23:01.693Z,21.13
2018-09-18T07:25:31.163Z,15.10
2018-09-18T07:28:00.356Z,10.60
2018-09-18T07:30:29.592Z,24.43
2018-09-18T07:32:58.807Z,28.80
2018-09-18T07:35:28.056Z,25.17
2018-09-18T07:37:57.237Z,53.07
2018-09-18T07:40:26.480Z,26.83
2018-09-18T07:42:55.634Z,13.23
2018-09-18T07:45:24.895Z,14.60
2018-09-18T07:47:54.096Z,16.60
2018-09-18T07:50:23.424Z,19.73
2018-09-18T07:52:52.615Z,25.70
2018-09-18T07:55:21.883Z,14.60
2018-09-18T07:57:51.095Z,32.33
2018-09-18T08:00:20.354Z,28.83
2018-09-18T08:02:49.584Z,21.50
2018-09-18T08:05:18.826Z,25.90
2018-09-18T08:07:48.043Z,27.63
2018-09-18T08:10:17.314Z,27.90
2018-09-18T08:12:46.536Z,23.13
2018-09-18T08:15:15.747Z,16.93
2018-09-18T08:17:44.989Z,9.17
2018-09-18T08:20:14.318Z,10.17
2018-09-18T08:22:43.525Z,13.88
2018-09-18T08:25:13.467Z,11.00
2018-09-18T08:27:42.629Z,7.10
2018-09-18T08:30:12.378Z,12.20
2018-09-18T08:32:41.752Z,10.28
2018-09-18T08:35:12.904Z,14.23
2018-09-18T08:37:42.083Z,9.10
2018-09-18T08:40:12.578Z,13.40
2018-09-18T08:42:41.808Z,10.70
2018-09-18T08:45:12.241Z,14.73
2018-09-18T08:47:41.475Z,8.90
2018-09-18T08:50:12.086Z,9.87
2018-09-18T08:52:41.255Z,16.30
2018-09-18T08:55:11.830Z,8.87
2018-09-18T08:57:41.103Z,6.40
2018-09-18T09:00:11.641Z,7.83
2018-09-18T09:02:40.843Z,20.03
2018-09-18T09:05:11.540Z,9.40
2018-09-18T09:07:40.951Z,15.93
2018-09-18T09:10:11.679Z,8.13
2018-09-18T09:12:40.857Z,11.57
2018-09-18T09:15:11.349Z,8.27
2018-09-18T09:17:40.899Z,9.50
2018-09-18T09:20:11.299Z,14.50
2018-09-18T09:22:40.602Z,9.20
2018-09-18T09:25:10.867Z,11.17
2018-09-18T09:27:40.557Z,16.50
2018-09-18T09:30:11.144Z,10.50
2018-09-18T09:32:40.341Z,9.27
2018-09-18T09:35:10.672Z,7.73
2018-09-18T09:37:39.865Z,7.70
2018-09-18T09:40:11.044Z,9.47
2018-09-18T09:42:40.261Z,11.03
2018-09-18T09:45:11.182Z,10.80
2018-09-18T09:47:40.334Z,8.73
2018-09-18T09:50:10.952Z,10.43
2018-09-18T09:52:40.139Z,10.67
2018-09-18T09:55:10.206Z,12.80
2018-09-18T09:57:39.427Z,10.40
2018-09-18T10:00:18.715Z,16.93
2018-09-18T10:02:49.742Z,8.03
2018-09-18T10:05:20.382Z,8.90
2018-09-18T10:07:50.489Z,6.67
2018-09-18T10:10:20.953Z,8.70
2018-09-18T10:12:50.172Z,5.57
2018-09-18T10:15:19.435Z,7.57
2018-09-18T10:17:48.731Z,7.27
2018-09-18T10:20:17.890Z,12.90
2018-09-18T10:22:47.372Z,8.65
2018-09-18T10:25:16.725Z,15.63
2018-09-18T10:27:45.860Z,7.43
2018-09-18T10:30:15.178Z,9.30
2018-09-18T10:32:44.507Z,10.00
2018-09-18T10:35:14.192Z,6.87
2018-09-18T10:37:43.362Z,8.40
2018-09-18T10:40:13.539Z,7.50
2018-09-18T10:42:42.745Z,9.80
2018-09-18T10:45:13.681Z,7.53
2018-09-18T10:47:42.848Z,8.70
2018-09-18T10:50:12.499Z,7.87
2018-09-18T10:52:41.688Z,13.63
2018-09-18T10:55:12.324Z,7.63
2018-09-18T10:57:41.649Z,16.80
2018-09-18T11:00:12.515Z,5.90
2018-09-18T11:02:41.843Z,14.97
2018-09-18T11:05:12.608Z,9.27
2018-09-18T11:07:41.872Z,8.23
2018-09-18T11:10:12.532Z,7.87
2018-09-18T11:12:41.758Z,7.93
2018-09-18T11:15:12.523Z,9.70
2018-09-18T11:17:41.712Z,11.08
2018-09-18T11:20:12.752Z,7.20
2018-09-18T11:22:41.924Z,10.43
2018-09-18T11:25:12.099Z,7.77
2018-09-18T11:27:41.205Z,5.87
2018-09-18T11:30:12.386Z,9.10
2018-09-18T11:32:41.567Z,11.37
2018-09-18T11:35:12.323Z,7.13
2018-09-18T11:37:41.499Z,7.47
2018-09-18T11:40:13.125Z,7.10
2018-09-18T11:42:42.329Z,5.87
2018-09-18T11:45:13.246Z,7.87
2018-09-18T11:47:42.475Z,5.50
2018-09-18T11:50:12.701Z,8.13
2018-09-18T11:52:41.960Z,6.15
2018-09-18T11:55:12.603Z,9.08
2018-09-18T11:57:41.820Z,8.20
2018-09-18T12:00:12.447Z,10.15
2018-09-18T12:02:41.697Z,8.63
2018-09-18T12:05:12.029Z,9.57
2018-09-18T12:07:41.140Z,9.93
2018-09-18T12:10:11.688Z,6.53
2018-09-18T12:12:40.862Z,7.28
2018-09-18T12:15:11.799Z,6.50
2018-09-18T12:17:40.971Z,6.27
2018-09-18T12:20:11.559Z,6.67
2018-09-18T12:22:40.809Z,6.67
2018-09-18T12:25:11.658Z,7.83
2018-09-18T12:27:40.855Z,6.47
2018-09-18T12:30:11.857Z,6.30
2018-09-18T12:32:41.078Z,7.87
2018-09-18T12:35:12.025Z,4.70
2018-09-18T12:37:41.201Z,6.10
2018-09-18T12:40:11.889Z,6.45
2018-09-18T12:42:41.467Z,6.80
2018-09-18T12:45:11.859Z,8.10
2018-09-18T12:47:41.075Z,9.00
2018-09-18T12:50:12.246Z,11.50
2018-09-18T12:52:41.199Z,8.05
2018-09-18T12:55:11.419Z,11.07
2018-09-18T12:57:40.728Z,11.97
2018-09-18T13:00:11.448Z,17.13
2018-09-18T13:02:40.574Z,8.20
2018-09-18T13:05:11.760Z,9.70
2018-09-18T13:07:40.984Z,12.87
2018-09-18T13:10:11.270Z,8.53
2018-09-18T13:12:40.465Z,9.70
2018-09-18T13:15:10.436Z,10.60
2018-09-18T13:17:39.704Z,7.07
2018-09-18T13:20:09.791Z,6.50
2018-09-18T13:22:39.058Z,10.00
2018-09-18T13:25:08.514Z,8.23
2018-09-18T13:27:37.724Z,9.23
2018-09-18T13:30:07.312Z,6.37
2018-09-18T13:32:36.551Z,6.20
2018-09-18T13:35:05.714Z,6.63
2018-09-18T13:37:34.923Z,8.53
2018-09-18T13:40:04.099Z,9.43
2018-09-18T13:42:33.314Z,8.50
2018-09-18T13:45:02.470Z,6.55
2018-09-18T13:47:31.724Z,6.67
2018-09-18T13:50:00.869Z,6.23
2018-09-18T13:52:30.107Z,5.93
2018-09-18T13:54:59.264Z,7.15
2018-09-18T13:57:28.536Z,9.57
2018-09-18T13:59:57.659Z,7.73
2018-09-18T14:02:27.077Z,11.40
2018-09-18T14:04:56.307Z,8.00
2018-09-18T14:07:25.462Z,6.40
2018-09-18T14:09:54.639Z,8.20
2018-09-18T14:12:23.880Z,8.30
2018-09-18T14:14:53.316Z,12.30
2018-09-18T14:17:22.498Z,9.47
2018-09-18T14:19:51.685Z,8.60
2018-09-18T14:22:20.892Z,7.57
2018-09-18T14:24:50.010Z,9.73
2018-09-18T14:27:19.219Z,5.73
2018-09-18T14:29:48.401Z,10.53
2018-09-18T14:32:17.613Z,6.90
2018-09-18T14:34:46.766Z,6.50
2018-09-18T14:37:15.911Z,5.90
2018-09-18T14:39:45.049Z,5.40
2018-09-18T14:42:14.224Z,11.20
2018-09-18T14:44:43.366Z,8.33
2018-09-18T14:47:12.579Z,7.10
2018-09-18T14:49:41.726Z,9.93
2018-09-18T14:52:10.959Z,8.53
2018-09-18T14:54:40.103Z,6.63
2018-09-18T14:57:09.636Z,6.50
2018-09-18T14:59:38.837Z,11.35
2018-09-18T15:02:08.525Z,6.43
2018-09-18T15:04:37.683Z,9.43
2018-09-18T15:07:07.279Z,9.97
2018-09-18T15:09:36.450Z,14.53
2018-09-18T15:12:05.779Z,15.23
2018-09-18T15:14:34.953Z,7.73
2018-09-18T15:17:04.138Z,5.53
2018-09-18T15:19:33.315Z,10.20
2018-09-18T15:22:02.585Z,6.20
2018-09-18T15:24:31.680Z,7.37
2018-09-18T15:27:00.883Z,9.07
2018-09-18T15:29:30.075Z,8.63
2018-09-18T15:31:59.304Z,6.70
2018-09-18T15:34:28.405Z,9.73
2018-09-18T15:36:57.655Z,11.33
2018-09-18T15:39:26.873Z,9.58
2018-09-18T15:41:56.051Z,10.73
2018-09-18T15:44:25.196Z,5.43
2018-09-18T15:46:54.410Z,9.97
2018-09-18T15:49:23.575Z,8.83
2018-09-18T15:51:52.774Z,9.90
2018-09-18T15:54:21.896Z,9.20
2018-09-18T15:56:51.184Z,7.00
2018-09-18T15:59:20.356Z,14.50
2018-09-18T16:01:49.591Z,5.90
2018-09-18T16:04:18.789Z,6.40
2018-09-18T16:06:48.052Z,7.80
2018-09-18T16:09:17.185Z,8.63
2018-09-18T16:11:46.372Z,7.73
2018-09-18T16:14:15.602Z,5.70
2018-09-18T16:16:46.133Z,6.57
2018-09-18T16:19:16.371Z,7.70
2018-09-18T16:21:47.670Z,5.63
2018-09-18T16:24:16.894Z,7.28
2018-09-18T16:26:46.080Z,14.13
2018-09-18T16:29:15.239Z,5.47
2018-09-18T16:31:44.771Z,5.70
2018-09-18T16:34:14.001Z,11.27
2018-09-18T16:36:44.156Z,8.33
2018-09-18T16:39:14.059Z,6.23
2018-09-18T16:41:43.253Z,10.23
2018-09-18T16:44:12.487Z,11.47
2018-09-18T16:46:41.749Z,7.93
2018-09-18T16:49:11.107Z,6.60
2018-09-18T16:51:40.328Z,9.17
2018-09-18T16:54:09.966Z,11.20
2018-09-18T16:56:39.153Z,5.90
2018-09-18T16:59:08.786Z,6.33
2018-09-18T17:01:38.405Z,6.80
2018-09-18T17:04:08.524Z,8.05
2018-09-18T17:06:37.850Z,9.15
2018-09-18T17:09:08.572Z,7.27
2018-09-18T17:11:38.033Z,14.67
2018-09-18T17:14:07.331Z,7.17
2018-09-18T17:16:36.613Z,5.33
2018-09-18T17:19:06.028Z,5.97
2018-09-18T17:21:35.261Z,6.33
2018-09-18T17:24:07.473Z,8.53
2018-09-18T17:26:36.635Z,8.17
2018-09-18T17:29:06.094Z,8.90
2018-09-18T17:31:35.338Z,8.83
2018-09-18T17:34:04.681Z,8.73
2018-09-18T17:36:33.862Z,7.70
2018-09-18T17:39:03.218Z,7.30
2018-09-18T17:41:32.468Z,8.90
2018-09-18T17:44:01.582Z,14.13
2018-09-18T17:46:30.866Z,8.07
2018-09-18T17:49:00.081Z,7.47
2018-09-18T17:51:29.263Z,7.40
2018-09-18T17:53:58.419Z,8.40
2018-09-18T17:56:27.916Z,9.38
2018-09-18T17:58:57.296Z,8.00
2018-09-18T18:01:26.653Z,10.50
2018-09-18T18:03:55.984Z,7.62
2018-09-18T18:06:25.398Z,11.67
2018-09-18T18:08:54.590Z,7.40
2018-09-18T18:11:24.096Z,12.93
2018-09-18T18:13:53.326Z,10.47
2018-09-18T18:16:22.524Z,8.53
2018-09-18T18:18:51.758Z,9.83
2018-09-18T18:21:21.012Z,10.70
2018-09-18T18:23:50.246Z,8.03
2018-09-18T18:26:19.469Z,8.23
2018-09-18T18:28:48.645Z,10.93
2018-09-18T18:31:18.001Z,11.27
2018-09-18T18:33:47.382Z,11.43
2018-09-18T18:36:16.783Z,12.70
2018-09-18T18:38:46.124Z,14.57
2018-09-18T18:41:15.873Z,16.33
2018-09-18T18:43:45.285Z,16.50
2018-09-18T18:46:15.326Z,8.07
2018-09-18T18:48:44.631Z,18.23
2018-09-18T18:51:14.805Z,10.67
2018-09-18T18:53:44.043Z,9.70
2018-09-18T18:56:15.156Z,11.30
2018-09-18T18:58:47.324Z,10.73
2018-09-18T19:01:16.535Z,10.10
2018-09-18T19:03:45.888Z,13.70
2018-09-18T19:06:16.260Z,10.10
2018-09-18T19:08:45.661Z,14.90
2018-09-18T19:11:15.484Z,8.50
2018-09-18T19:13:44.669Z,7.07
2018-09-18T19:16:14.531Z,9.77
2018-09-18T19:18:43.748Z,15.00
2018-09-18T19:21:13.440Z,12.47
2018-09-18T19:23:42.813Z,15.40
2018-09-18T19:26:12.137Z,10.63
2018-09-18T19:28:41.404Z,10.20
2018-09-18T19:31:10.615Z,13.10
2018-09-18T19:33:39.809Z,14.23
2018-09-18T19:36:09.038Z,10.87
2018-09-18T19:38:38.201Z,15.20
2018-09-18T19:41:08.549Z,7.07
2018-09-18T19:43:37.741Z,10.57
2018-09-18T19:46:07.231Z,9.10
2018-09-18T19:48:36.410Z,7.93
2018-09-18T19:51:06.391Z,11.00
2018-09-18T19:53:35.620Z,15.70
2018-09-18T19:56:04.878Z,9.03
2018-09-18T19:58:34.069Z,9.40
2018-09-18T20:01:03.324Z,14.33
2018-09-18T20:03:32.474Z,9.57
2018-09-18T20:06:01.703Z,12.07
2018-09-18T20:08:30.893Z,12.03
2018-09-18T20:11:00.055Z,9.90
2018-09-18T20:13:29.209Z,15.97
2018-09-18T20:15:58.439Z,11.57
2018-09-18T20:18:27.610Z,15.60
2018-09-18T20:20:56.996Z,12.60
2018-09-18T20:23:26.149Z,11.43
2018-09-18T20:25:55.327Z,11.10
2018-09-18T20:28:24.533Z,10.27
2018-09-18T20:30:53.831Z,9.43
2018-09-18T20:33:23.039Z,11.40
2018-09-18T20:35:52.304Z,11.73
2018-09-18T20:38:21.506Z,9.17
2018-09-18T20:40:50.740Z,8.90
2018-09-18T20:43:19.924Z,10.07
2018-09-18T20:45:49.158Z,9.10
2018-09-18T20:48:18.395Z,13.53
2018-09-18T20:50:47.648Z,9.50
2018-09-18T20:53:17.119Z,10.50
2018-09-18T20:55:46.331Z,10.90
2018-09-18T20:58:16.080Z,16.03
2018-09-18T21:00:45.270Z,8.33
2018-09-18T21:03:14.995Z,13.60
2018-09-18T21:05:44.239Z,11.67
2018-09-18T21:08:13.957Z,9.53
2018-09-18T21:10:43.198Z,14.90
2018-09-18T21:13:12.366Z,13.57
2018-09-18T21:15:41.609Z,10.47
2018-09-18T21:18:10.772Z,14.47
2018-09-18T21:20:40.023Z,11.30
2018-09-18T21:23:09.126Z,10.07
2018-09-18T21:26:18.252Z,16.50
2018-09-18T21:28:47.785Z,12.60
2018-09-18T21:31:17.498Z,11.73
2018-09-18T21:33:46.696Z,9.27
2018-09-18T21:36:16.050Z,10.57
2018-09-18T21:38:45.251Z,19.73
2018-09-18T21:41:15.039Z,7.40
2018-09-18T21:43:44.282Z,11.00
2018-09-18T21:46:14.083Z,13.43
2018-09-18T21:48:43.312Z,12.73
2018-09-18T21:51:12.850Z,15.50
2018-09-18T21:53:42.024Z,8.40
2018-09-18T21:56:11.449Z,11.35
2018-09-18T21:58:40.683Z,10.68
2018-09-18T22:01:12.498Z,20.32
2018-09-18T22:03:41.760Z,10.30
2018-09-18T22:06:11.465Z,9.10
2018-09-18T22:08:40.634Z,10.63
2018-09-18T22:11:09.912Z,13.53
2018-09-18T22:13:39.116Z,9.40
2018-09-18T22:16:08.328Z,16.60
2018-09-18T22:18:37.474Z,10.75
2018-09-18T22:21:06.792Z,9.10
2018-09-18T22:23:35.947Z,10.20
2018-09-18T22:26:05.179Z,10.93
2018-09-18T22:28:34.375Z,8.77
2018-09-18T22:31:03.637Z,12.43
2018-09-18T22:33:32.802Z,9.20
2018-09-18T22:36:02.051Z,12.20
2018-09-18T22:38:31.192Z,10.90
2018-09-18T22:41:00.380Z,9.47
2018-09-18T22:43:29.603Z,8.97
2018-09-18T22:45:58.890Z,11.40
2018-09-18T22:48:28.109Z,9.08
2018-09-18T22:50:57.313Z,11.10
2018-09-18T22:53:26.477Z,11.07
2018-09-18T22:55:55.700Z,9.70
2018-09-18T22:58:24.902Z,9.70
2018-09-18T23:00:54.302Z,12.70
2018-09-18T23:03:23.470Z,12.40
2018-09-18T23:05:52.700Z,11.40
2018-09-18T23:08:21.911Z,16.07
2018-09-18T23:10:51.127Z,19.60
2018-09-18T23:13:20.343Z,8.00
2018-09-18T23:15:49.857Z,12.77
2018-09-18T23:18:19.049Z,11.67
2018-09-18T23:20:48.219Z,14.90
2018-09-18T23:23:17.427Z,12.50
2018-09-18T23:25:46.630Z,10.60
2018-09-18T23:28:16.128Z,15.73
2018-09-18T23:30:45.283Z,10.87
2018-09-18T23:33:15.186Z,9.28
2018-09-18T23:35:44.389Z,11.43
2018-09-18T23:38:14.203Z,10.80
2018-09-18T23:40:43.429Z,8.75
2018-09-18T23:43:13.273Z,12.23
2018-09-18T23:45:42.512Z,12.67
2018-09-18T23:48:12.203Z,12.30
2018-09-18T23:50:41.390Z,11.60
2018-09-18T23:53:10.621Z,9.48
2018-09-18T23:55:39.849Z,12.67
2018-09-18T23:58:09.029Z,13.63
